sensor_id;sensor_type;location;lat;lon;timestamp;temperature;humidity
62424;DHT22;48463;43.604;3.872;2023-05-16T00:00:24;17.00;80.60
62424;DHT22;48463;43.604;3.872;2023-05-16T00:02:50;16.90;80.80
62424;DHT22;48463;43.604;3.872;2023-05-16T00:05:16;16.90;81.10
62424;DHT22;48463;43.604;3.872;2023-05-16T00:07:43;16.90;81.30
62424;DHT22;48463;43.604;3.872;2023-05-16T00:10:10;16.90;81.40
62424;DHT22;48463;43.604;3.872;2023-05-16T00:12:36;16.80;81.80
62424;DHT22;48463;43.604;3.872;2023-05-16T00:15:07;16.90;81.50
62424;DHT22;48463;43.604;3.872;2023-05-16T00:17:37;16.80;81.70
62424;DHT22;48463;43.604;3.872;2023-05-16T00:20:02;16.80;81.80
62424;DHT22;48463;43.604;3.872;2023-05-16T00:22:32;16.80;82.00
62424;DHT22;48463;43.604;3.872;2023-05-16T00:24:58;16.80;82.20
62424;DHT22;48463;43.604;3.872;2023-05-16T00:27:24;16.70;82.50
62424;DHT22;48463;43.604;3.872;2023-05-16T00:29:50;16.70;82.60
62424;DHT22;48463;43.604;3.872;2023-05-16T00:32:16;16.60;82.60
62424;DHT22;48463;43.604;3.872;2023-05-16T00:34:42;16.60;83.10
62424;DHT22;48463;43.604;3.872;2023-05-16T00:37:08;16.60;82.90
62424;DHT22;48463;43.604;3.872;2023-05-16T00:39:33;16.60;83.60
62424;DHT22;48463;43.604;3.872;2023-05-16T00:41:59;16.60;82.90
62424;DHT22;48463;43.604;3.872;2023-05-16T00:44:25;16.70;82.80
62424;DHT22;48463;43.604;3.872;2023-05-16T00:46:50;16.60;82.60
62424;DHT22;48463;43.604;3.872;2023-05-16T00:49:17;16.60;83.00
62424;DHT22;48463;43.604;3.872;2023-05-16T00:51:43;16.60;83.10
62424;DHT22;48463;43.604;3.872;2023-05-16T00:54:10;16.40;83.40
62424;DHT22;48463;43.604;3.872;2023-05-16T00:56:36;16.40;83.40
62424;DHT22;48463;43.604;3.872;2023-05-16T00:59:02;16.50;83.30
62424;DHT22;48463;43.604;3.872;2023-05-16T01:01:29;16.60;83.40
62424;DHT22;48463;43.604;3.872;2023-05-16T01:03:56;16.60;83.30
62424;DHT22;48463;43.604;3.872;2023-05-16T01:06:22;16.60;83.30
62424;DHT22;48463;43.604;3.872;2023-05-16T01:08:47;16.60;83.30
62424;DHT22;48463;43.604;3.872;2023-05-16T01:11:30;16.60;83.60
62424;DHT22;48463;43.604;3.872;2023-05-16T01:16:58;16.60;83.80
62424;DHT22;48463;43.604;3.872;2023-05-16T01:28:15;16.40;84.50
62424;DHT22;48463;43.604;3.872;2023-05-16T01:30:40;16.50;84.70
62424;DHT22;48463;43.604;3.872;2023-05-16T01:33:07;16.50;84.60
62424;DHT22;48463;43.604;3.872;2023-05-16T01:35:39;16.50;84.80
62424;DHT22;48463;43.604;3.872;2023-05-16T01:38:35;16.40;84.80
62424;DHT22;48463;43.604;3.872;2023-05-16T01:43:42;16.40;85.70
62424;DHT22;48463;43.604;3.872;2023-05-16T01:46:13;16.30;85.90
62424;DHT22;48463;43.604;3.872;2023-05-16T01:48:49;16.30;86.10
62424;DHT22;48463;43.604;3.872;2023-05-16T01:51:19;16.20;86.40
62424;DHT22;48463;43.604;3.872;2023-05-16T01:53:46;16.30;86.90
62424;DHT22;48463;43.604;3.872;2023-05-16T01:56:16;16.30;87.20
62424;DHT22;48463;43.604;3.872;2023-05-16T01:58:43;16.20;87.30
62424;DHT22;48463;43.604;3.872;2023-05-16T02:01:12;16.20;87.20
62424;DHT22;48463;43.604;3.872;2023-05-16T02:03:37;16.20;87.30
62424;DHT22;48463;43.604;3.872;2023-05-16T02:06:03;16.10;87.60
62424;DHT22;48463;43.604;3.872;2023-05-16T02:08:29;16.10;87.90
62424;DHT22;48463;43.604;3.872;2023-05-16T02:10:55;16.10;88.10
62424;DHT22;48463;43.604;3.872;2023-05-16T02:13:21;16.10;88.30
62424;DHT22;48463;43.604;3.872;2023-05-16T02:15:47;16.00;88.20
62424;DHT22;48463;43.604;3.872;2023-05-16T02:18:14;15.90;88.70
62424;DHT22;48463;43.604;3.872;2023-05-16T02:20:40;15.90;88.80
62424;DHT22;48463;43.604;3.872;2023-05-16T02:23:06;15.80;89.20
62424;DHT22;48463;43.604;3.872;2023-05-16T02:25:32;15.80;89.20
62424;DHT22;48463;43.604;3.872;2023-05-16T02:27:57;15.80;89.50
62424;DHT22;48463;43.604;3.872;2023-05-16T02:30:23;15.90;89.20
62424;DHT22;48463;43.604;3.872;2023-05-16T02:32:48;15.90;89.10
62424;DHT22;48463;43.604;3.872;2023-05-16T02:35:14;15.90;88.80
62424;DHT22;48463;43.604;3.872;2023-05-16T02:37:41;15.90;88.80
62424;DHT22;48463;43.604;3.872;2023-05-16T02:40:07;15.80;89.00
62424;DHT22;48463;43.604;3.872;2023-05-16T02:42:33;15.80;89.00
62424;DHT22;48463;43.604;3.872;2023-05-16T02:44:59;15.80;89.10
62424;DHT22;48463;43.604;3.872;2023-05-16T02:47:25;15.70;89.00
62424;DHT22;48463;43.604;3.872;2023-05-16T02:49:51;15.80;89.30
62424;DHT22;48463;43.604;3.872;2023-05-16T02:52:17;15.70;88.70
62424;DHT22;48463;43.604;3.872;2023-05-16T02:54:43;15.70;88.80
62424;DHT22;48463;43.604;3.872;2023-05-16T02:57:09;15.70;89.20
62424;DHT22;48463;43.604;3.872;2023-05-16T02:59:35;15.60;89.10
62424;DHT22;48463;43.604;3.872;2023-05-16T03:02:01;15.60;88.80
62424;DHT22;48463;43.604;3.872;2023-05-16T03:04:27;15.60;89.10
62424;DHT22;48463;43.604;3.872;2023-05-16T03:06:52;15.60;88.90
62424;DHT22;48463;43.604;3.872;2023-05-16T03:09:18;15.60;88.60
62424;DHT22;48463;43.604;3.872;2023-05-16T03:11:44;15.60;88.60
62424;DHT22;48463;43.604;3.872;2023-05-16T03:14:10;15.60;88.40
62424;DHT22;48463;43.604;3.872;2023-05-16T03:16:37;15.50;88.50
62424;DHT22;48463;43.604;3.872;2023-05-16T03:19:03;15.60;88.20
62424;DHT22;48463;43.604;3.872;2023-05-16T03:21:29;15.50;87.60
62424;DHT22;48463;43.604;3.872;2023-05-16T03:23:56;15.50;87.50
62424;DHT22;48463;43.604;3.872;2023-05-16T03:26:23;15.40;87.80
62424;DHT22;48463;43.604;3.872;2023-05-16T03:28:49;15.40;87.20
62424;DHT22;48463;43.604;3.872;2023-05-16T03:31:15;15.40;87.30
62424;DHT22;48463;43.604;3.872;2023-05-16T03:33:42;15.40;87.20
62424;DHT22;48463;43.604;3.872;2023-05-16T03:36:08;15.30;87.80
62424;DHT22;48463;43.604;3.872;2023-05-16T03:38:34;15.30;87.90
62424;DHT22;48463;43.604;3.872;2023-05-16T03:41:00;15.20;88.00
62424;DHT22;48463;43.604;3.872;2023-05-16T03:43:26;15.20;87.60
62424;DHT22;48463;43.604;3.872;2023-05-16T03:45:51;15.20;87.60
62424;DHT22;48463;43.604;3.872;2023-05-16T03:48:17;15.20;87.40
62424;DHT22;48463;43.604;3.872;2023-05-16T03:50:43;15.20;87.40
62424;DHT22;48463;43.604;3.872;2023-05-16T03:53:09;15.10;87.40
62424;DHT22;48463;43.604;3.872;2023-05-16T03:55:35;15.10;87.60
62424;DHT22;48463;43.604;3.872;2023-05-16T03:58:00;15.10;87.60
62424;DHT22;48463;43.604;3.872;2023-05-16T04:00:26;15.10;87.30
62424;DHT22;48463;43.604;3.872;2023-05-16T04:02:52;15.10;86.90
62424;DHT22;48463;43.604;3.872;2023-05-16T04:05:18;15.00;87.20
62424;DHT22;48463;43.604;3.872;2023-05-16T04:07:43;15.00;87.00
62424;DHT22;48463;43.604;3.872;2023-05-16T04:10:10;15.00;86.80
62424;DHT22;48463;43.604;3.872;2023-05-16T04:12:36;15.00;87.10
62424;DHT22;48463;43.604;3.872;2023-05-16T04:15:05;15.00;86.10
62424;DHT22;48463;43.604;3.872;2023-05-16T04:17:32;15.00;85.90
62424;DHT22;48463;43.604;3.872;2023-05-16T04:19:58;15.00;86.00
62424;DHT22;48463;43.604;3.872;2023-05-16T04:22:25;14.90;86.30
62424;DHT22;48463;43.604;3.872;2023-05-16T04:24:50;14.90;86.30
62424;DHT22;48463;43.604;3.872;2023-05-16T04:27:16;14.90;86.10
62424;DHT22;48463;43.604;3.872;2023-05-16T04:29:42;15.00;85.90
62424;DHT22;48463;43.604;3.872;2023-05-16T04:32:07;14.90;85.90
62424;DHT22;48463;43.604;3.872;2023-05-16T04:34:34;15.00;86.40
62424;DHT22;48463;43.604;3.872;2023-05-16T04:37:03;15.10;85.60
62424;DHT22;48463;43.604;3.872;2023-05-16T04:39:30;15.10;85.50
62424;DHT22;48463;43.604;3.872;2023-05-16T04:41:55;15.10;85.50
62424;DHT22;48463;43.604;3.872;2023-05-16T04:44:24;15.10;85.80
62424;DHT22;48463;43.604;3.872;2023-05-16T04:46:50;15.10;85.80
62424;DHT22;48463;43.604;3.872;2023-05-16T04:49:18;15.10;86.00
62424;DHT22;48463;43.604;3.872;2023-05-16T04:51:43;15.00;86.20
62424;DHT22;48463;43.604;3.872;2023-05-16T04:54:09;15.00;86.50
62424;DHT22;48463;43.604;3.872;2023-05-16T04:56:35;15.10;86.70
62424;DHT22;48463;43.604;3.872;2023-05-16T04:59:01;15.10;86.80
62424;DHT22;48463;43.604;3.872;2023-05-16T05:01:28;15.20;87.00
62424;DHT22;48463;43.604;3.872;2023-05-16T05:03:54;15.20;87.00
62424;DHT22;48463;43.604;3.872;2023-05-16T05:06:19;15.10;86.90
62424;DHT22;48463;43.604;3.872;2023-05-16T05:08:46;15.20;86.90
62424;DHT22;48463;43.604;3.872;2023-05-16T05:11:11;15.40;86.20
62424;DHT22;48463;43.604;3.872;2023-05-16T05:13:37;15.50;85.60
62424;DHT22;48463;43.604;3.872;2023-05-16T05:16:03;15.90;83.40
62424;DHT22;48463;43.604;3.872;2023-05-16T05:18:29;16.10;82.30
62424;DHT22;48463;43.604;3.872;2023-05-16T05:20:55;16.20;81.50
62424;DHT22;48463;43.604;3.872;2023-05-16T05:23:20;16.30;81.30
62424;DHT22;48463;43.604;3.872;2023-05-16T05:25:46;16.40;80.70
62424;DHT22;48463;43.604;3.872;2023-05-16T05:28:12;16.50;80.50
62424;DHT22;48463;43.604;3.872;2023-05-16T05:30:38;16.50;80.50
62424;DHT22;48463;43.604;3.872;2023-05-16T05:33:04;16.50;80.30
62424;DHT22;48463;43.604;3.872;2023-05-16T05:35:29;16.60;80.20
62424;DHT22;48463;43.604;3.872;2023-05-16T05:37:55;16.60;79.50
62424;DHT22;48463;43.604;3.872;2023-05-16T05:40:21;16.70;79.50
62424;DHT22;48463;43.604;3.872;2023-05-16T05:42:47;16.70;79.10
62424;DHT22;48463;43.604;3.872;2023-05-16T05:45:14;16.70;78.90
62424;DHT22;48463;43.604;3.872;2023-05-16T05:47:41;16.70;78.70
62424;DHT22;48463;43.604;3.872;2023-05-16T05:50:08;16.80;78.20
62424;DHT22;48463;43.604;3.872;2023-05-16T05:52:37;16.80;78.10
62424;DHT22;48463;43.604;3.872;2023-05-16T05:55:03;16.90;78.40
62424;DHT22;48463;43.604;3.872;2023-05-16T05:57:30;16.80;77.80
62424;DHT22;48463;43.604;3.872;2023-05-16T05:59:56;17.00;78.00
62424;DHT22;48463;43.604;3.872;2023-05-16T06:02:26;17.00;78.00
62424;DHT22;48463;43.604;3.872;2023-05-16T06:05:02;17.00;78.00
62424;DHT22;48463;43.604;3.872;2023-05-16T06:07:36;17.20;77.90
62424;DHT22;48463;43.604;3.872;2023-05-16T06:10:30;17.10;77.60
62424;DHT22;48463;43.604;3.872;2023-05-16T06:13:05;17.20;78.10
62424;DHT22;48463;43.604;3.872;2023-05-16T06:15:40;17.20;77.70
62424;DHT22;48463;43.604;3.872;2023-05-16T06:18:06;17.30;77.80
62424;DHT22;48463;43.604;3.872;2023-05-16T06:20:32;17.40;77.90
62424;DHT22;48463;43.604;3.872;2023-05-16T06:22:58;17.40;77.90
62424;DHT22;48463;43.604;3.872;2023-05-16T06:25:24;17.40;77.50
62424;DHT22;48463;43.604;3.872;2023-05-16T06:28:14;17.50;77.80
62424;DHT22;48463;43.604;3.872;2023-05-16T06:30:56;17.60;77.20
62424;DHT22;48463;43.604;3.872;2023-05-16T06:33:22;17.70;77.60
62424;DHT22;48463;43.604;3.872;2023-05-16T06:35:49;17.70;77.50
62424;DHT22;48463;43.604;3.872;2023-05-16T06:38:15;17.70;77.30
62424;DHT22;48463;43.604;3.872;2023-05-16T06:40:40;17.70;77.10
62424;DHT22;48463;43.604;3.872;2023-05-16T06:43:06;17.80;77.20
62424;DHT22;48463;43.604;3.872;2023-05-16T06:45:32;17.90;76.90
62424;DHT22;48463;43.604;3.872;2023-05-16T06:47:58;18.10;76.90
62424;DHT22;48463;43.604;3.872;2023-05-16T06:50:24;18.10;77.00
62424;DHT22;48463;43.604;3.872;2023-05-16T06:52:49;18.10;76.80
62424;DHT22;48463;43.604;3.872;2023-05-16T06:55:15;18.20;77.00
62424;DHT22;48463;43.604;3.872;2023-05-16T06:57:41;18.30;76.60
62424;DHT22;48463;43.604;3.872;2023-05-16T07:00:07;18.30;76.40
62424;DHT22;48463;43.604;3.872;2023-05-16T07:02:33;18.30;76.60
62424;DHT22;48463;43.604;3.872;2023-05-16T07:04:59;18.40;76.30
62424;DHT22;48463;43.604;3.872;2023-05-16T07:07:25;18.40;76.70
62424;DHT22;48463;43.604;3.872;2023-05-16T07:09:51;18.50;76.20
62424;DHT22;48463;43.604;3.872;2023-05-16T07:12:16;18.60;76.30
62424;DHT22;48463;43.604;3.872;2023-05-16T07:14:42;18.70;76.40
62424;DHT22;48463;43.604;3.872;2023-05-16T07:17:08;18.80;75.80
62424;DHT22;48463;43.604;3.872;2023-05-16T07:19:34;18.80;76.20
62424;DHT22;48463;43.604;3.872;2023-05-16T07:22:00;18.70;75.50
62424;DHT22;48463;43.604;3.872;2023-05-16T07:24:32;18.70;75.60
62424;DHT22;48463;43.604;3.872;2023-05-16T07:27:01;18.80;75.70
62424;DHT22;48463;43.604;3.872;2023-05-16T07:29:28;18.90;75.50
62424;DHT22;48463;43.604;3.872;2023-05-16T07:31:55;19.00;75.30
62424;DHT22;48463;43.604;3.872;2023-05-16T07:34:20;19.20;75.70
62424;DHT22;48463;43.604;3.872;2023-05-16T07:36:46;19.30;75.30
62424;DHT22;48463;43.604;3.872;2023-05-16T07:39:12;19.40;75.10
62424;DHT22;48463;43.604;3.872;2023-05-16T07:41:37;19.40;74.10
62424;DHT22;48463;43.604;3.872;2023-05-16T07:44:06;19.30;73.90
62424;DHT22;48463;43.604;3.872;2023-05-16T07:46:33;19.40;74.00
62424;DHT22;48463;43.604;3.872;2023-05-16T07:48:58;19.60;73.20
62424;DHT22;48463;43.604;3.872;2023-05-16T07:51:24;19.70;73.60
62424;DHT22;48463;43.604;3.872;2023-05-16T07:53:52;19.60;73.30
62424;DHT22;48463;43.604;3.872;2023-05-16T07:56:17;19.60;73.30
62424;DHT22;48463;43.604;3.872;2023-05-16T07:58:43;19.80;72.90
62424;DHT22;48463;43.604;3.872;2023-05-16T08:01:09;19.80;73.10
62424;DHT22;48463;43.604;3.872;2023-05-16T08:03:36;19.90;72.50
62424;DHT22;48463;43.604;3.872;2023-05-16T08:06:19;20.10;73.90
62424;DHT22;48463;43.604;3.872;2023-05-16T08:08:45;20.00;72.40
62424;DHT22;48463;43.604;3.872;2023-05-16T08:11:11;20.20;73.40
62424;DHT22;48463;43.604;3.872;2023-05-16T08:13:36;20.10;72.40
62424;DHT22;48463;43.604;3.872;2023-05-16T08:16:02;20.20;71.60
62424;DHT22;48463;43.604;3.872;2023-05-16T08:18:28;20.20;71.90
62424;DHT22;48463;43.604;3.872;2023-05-16T08:20:54;20.30;71.80
62424;DHT22;48463;43.604;3.872;2023-05-16T08:23:19;20.20;71.80
62424;DHT22;48463;43.604;3.872;2023-05-16T08:25:45;20.40;72.20
62424;DHT22;48463;43.604;3.872;2023-05-16T08:28:11;20.30;71.10
62424;DHT22;48463;43.604;3.872;2023-05-16T08:30:39;20.30;71.40
62424;DHT22;48463;43.604;3.872;2023-05-16T08:33:05;20.40;71.30
62424;DHT22;48463;43.604;3.872;2023-05-16T08:35:31;20.60;71.20
62424;DHT22;48463;43.604;3.872;2023-05-16T08:37:59;20.50;71.10
62424;DHT22;48463;43.604;3.872;2023-05-16T08:40:29;20.80;70.90
62424;DHT22;48463;43.604;3.872;2023-05-16T08:42:58;20.80;69.80
62424;DHT22;48463;43.604;3.872;2023-05-16T08:45:24;21.10;69.00
62424;DHT22;48463;43.604;3.872;2023-05-16T08:47:53;21.30;68.50
62424;DHT22;48463;43.604;3.872;2023-05-16T08:50:21;21.00;68.40
62424;DHT22;48463;43.604;3.872;2023-05-16T08:52:51;21.10;68.80
62424;DHT22;48463;43.604;3.872;2023-05-16T08:55:19;21.30;69.00
62424;DHT22;48463;43.604;3.872;2023-05-16T08:57:48;21.40;67.70
62424;DHT22;48463;43.604;3.872;2023-05-16T09:00:16;21.30;67.00
62424;DHT22;48463;43.604;3.872;2023-05-16T09:02:44;21.50;66.70
62424;DHT22;48463;43.604;3.872;2023-05-16T09:05:12;21.50;68.00
62424;DHT22;48463;43.604;3.872;2023-05-16T09:07:40;21.60;67.10
62424;DHT22;48463;43.604;3.872;2023-05-16T09:10:07;21.60;67.70
62424;DHT22;48463;43.604;3.872;2023-05-16T09:12:34;21.40;66.80
62424;DHT22;48463;43.604;3.872;2023-05-16T09:15:04;21.60;67.70
62424;DHT22;48463;43.604;3.872;2023-05-16T09:17:43;21.60;68.30
62424;DHT22;48463;43.604;3.872;2023-05-16T09:20:18;21.30;68.60
62424;DHT22;48463;43.604;3.872;2023-05-16T09:22:56;21.50;69.30
62424;DHT22;48463;43.604;3.872;2023-05-16T09:25:28;21.40;68.40
62424;DHT22;48463;43.604;3.872;2023-05-16T09:27:56;21.60;68.60
62424;DHT22;48463;43.604;3.872;2023-05-16T09:30:29;21.80;68.30
62424;DHT22;48463;43.604;3.872;2023-05-16T09:32:55;22.00;67.90
62424;DHT22;48463;43.604;3.872;2023-05-16T09:35:22;21.40;67.70
62424;DHT22;48463;43.604;3.872;2023-05-16T09:37:49;21.20;68.80
62424;DHT22;48463;43.604;3.872;2023-05-16T09:40:21;21.50;69.00
62424;DHT22;48463;43.604;3.872;2023-05-16T09:45:27;21.60;68.60
62424;DHT22;48463;43.604;3.872;2023-05-16T09:47:52;21.70;68.80
62424;DHT22;48463;43.604;3.872;2023-05-16T09:50:18;21.70;68.10
62424;DHT22;48463;43.604;3.872;2023-05-16T09:52:44;21.70;68.00
62424;DHT22;48463;43.604;3.872;2023-05-16T09:55:10;21.80;68.50
62424;DHT22;48463;43.604;3.872;2023-05-16T09:57:39;21.60;68.20
62424;DHT22;48463;43.604;3.872;2023-05-16T10:00:13;21.90;68.70
62424;DHT22;48463;43.604;3.872;2023-05-16T10:02:42;21.80;69.10
62424;DHT22;48463;43.604;3.872;2023-05-16T10:05:08;21.60;69.10
62424;DHT22;48463;43.604;3.872;2023-05-16T10:07:34;21.90;69.20
62424;DHT22;48463;43.604;3.872;2023-05-16T10:10:06;21.80;68.80
62424;DHT22;48463;43.604;3.872;2023-05-16T10:12:36;21.70;67.70
62424;DHT22;48463;43.604;3.872;2023-05-16T10:15:04;21.70;69.00
62424;DHT22;48463;43.604;3.872;2023-05-16T10:17:33;22.00;69.00
62424;DHT22;48463;43.604;3.872;2023-05-16T10:20:06;22.40;68.00
62424;DHT22;48463;43.604;3.872;2023-05-16T10:22:40;22.70;68.20
62424;DHT22;48463;43.604;3.872;2023-05-16T10:25:33;22.70;66.80
62424;DHT22;48463;43.604;3.872;2023-05-16T10:28:01;22.80;67.50
62424;DHT22;48463;43.604;3.872;2023-05-16T10:30:28;22.70;67.40
62424;DHT22;48463;43.604;3.872;2023-05-16T10:32:55;22.40;67.40
62424;DHT22;48463;43.604;3.872;2023-05-16T10:35:22;22.00;67.40
62424;DHT22;48463;43.604;3.872;2023-05-16T10:37:49;22.40;67.60
62424;DHT22;48463;43.604;3.872;2023-05-16T10:40:16;22.70;67.30
62424;DHT22;48463;43.604;3.872;2023-05-16T10:43:01;23.10;67.30
62424;DHT22;48463;43.604;3.872;2023-05-16T10:45:28;23.10;67.90
62424;DHT22;48463;43.604;3.872;2023-05-16T10:50:42;22.70;66.90
62424;DHT22;48463;43.604;3.872;2023-05-16T10:53:19;22.50;66.90
62424;DHT22;48463;43.604;3.872;2023-05-16T11:04:08;22.70;66.70
62424;DHT22;48463;43.604;3.872;2023-05-16T11:06:45;22.80;66.80
62424;DHT22;48463;43.604;3.872;2023-05-16T11:09:19;22.60;66.60
62424;DHT22;48463;43.604;3.872;2023-05-16T11:11:57;22.40;66.60
62424;DHT22;48463;43.604;3.872;2023-05-16T11:17:20;22.50;66.60
62424;DHT22;48463;43.604;3.872;2023-05-16T11:19:51;22.60;66.90
62424;DHT22;48463;43.604;3.872;2023-05-16T11:22:25;22.30;66.80
62424;DHT22;48463;43.604;3.872;2023-05-16T11:24:59;22.00;66.60
62424;DHT22;48463;43.604;3.872;2023-05-16T11:27:32;22.10;66.70
62424;DHT22;48463;43.604;3.872;2023-05-16T11:32:30;22.30;66.30
62424;DHT22;48463;43.604;3.872;2023-05-16T11:34:58;22.20;66.10
62424;DHT22;48463;43.604;3.872;2023-05-16T11:37:24;22.20;66.40
62424;DHT22;48463;43.604;3.872;2023-05-16T11:39:50;22.30;66.00
62424;DHT22;48463;43.604;3.872;2023-05-16T11:42:16;22.50;65.80
62424;DHT22;48463;43.604;3.872;2023-05-16T11:44:43;22.20;65.90
62424;DHT22;48463;43.604;3.872;2023-05-16T11:47:09;22.20;66.80
62424;DHT22;48463;43.604;3.872;2023-05-16T11:49:35;22.00;66.50
62424;DHT22;48463;43.604;3.872;2023-05-16T11:52:01;22.40;66.60
62424;DHT22;48463;43.604;3.872;2023-05-16T11:54:27;22.30;66.50
62424;DHT22;48463;43.604;3.872;2023-05-16T11:56:53;22.10;67.20
62424;DHT22;48463;43.604;3.872;2023-05-16T11:59:19;22.60;67.10
62424;DHT22;48463;43.604;3.872;2023-05-16T12:01:45;22.70;66.00
62424;DHT22;48463;43.604;3.872;2023-05-16T12:04:15;22.20;66.20
62424;DHT22;48463;43.604;3.872;2023-05-16T12:06:41;22.30;66.40
62424;DHT22;48463;43.604;3.872;2023-05-16T12:09:13;22.70;66.20
62424;DHT22;48463;43.604;3.872;2023-05-16T12:11:40;22.60;66.30
62424;DHT22;48463;43.604;3.872;2023-05-16T12:14:08;22.40;66.30
62424;DHT22;48463;43.604;3.872;2023-05-16T12:16:35;22.80;65.60
62424;DHT22;48463;43.604;3.872;2023-05-16T12:19:02;22.50;65.80
62424;DHT22;48463;43.604;3.872;2023-05-16T12:21:31;22.60;65.30
62424;DHT22;48463;43.604;3.872;2023-05-16T12:23:57;22.60;66.40
62424;DHT22;48463;43.604;3.872;2023-05-16T12:26:28;22.90;65.40
62424;DHT22;48463;43.604;3.872;2023-05-16T12:28:59;22.80;65.80
62424;DHT22;48463;43.604;3.872;2023-05-16T12:31:28;22.20;65.10
62424;DHT22;48463;43.604;3.872;2023-05-16T12:33:56;22.40;66.00
62424;DHT22;48463;43.604;3.872;2023-05-16T12:36:22;22.50;65.60
62424;DHT22;48463;43.604;3.872;2023-05-16T12:38:49;22.90;65.30
62424;DHT22;48463;43.604;3.872;2023-05-16T12:41:22;23.00;65.00
62424;DHT22;48463;43.604;3.872;2023-05-16T12:43:48;22.90;65.10
62424;DHT22;48463;43.604;3.872;2023-05-16T12:46:14;23.10;65.30
62424;DHT22;48463;43.604;3.872;2023-05-16T12:48:41;23.20;64.90
62424;DHT22;48463;43.604;3.872;2023-05-16T12:51:16;23.00;65.00
62424;DHT22;48463;43.604;3.872;2023-05-16T12:53:45;23.00;65.50
62424;DHT22;48463;43.604;3.872;2023-05-16T12:56:14;23.40;65.50
62424;DHT22;48463;43.604;3.872;2023-05-16T12:58:41;23.60;64.20
62424;DHT22;48463;43.604;3.872;2023-05-16T13:01:07;23.50;63.50
62424;DHT22;48463;43.604;3.872;2023-05-16T13:03:34;23.50;63.30
62424;DHT22;48463;43.604;3.872;2023-05-16T13:05:59;23.60;63.10
62424;DHT22;48463;43.604;3.872;2023-05-16T13:08:26;23.60;62.90
62424;DHT22;48463;43.604;3.872;2023-05-16T13:10:53;24.10;62.90
62424;DHT22;48463;43.604;3.872;2023-05-16T13:13:18;23.90;63.60
62424;DHT22;48463;43.604;3.872;2023-05-16T13:15:44;23.10;64.10
62424;DHT22;48463;43.604;3.872;2023-05-16T13:18:11;22.90;64.20
62424;DHT22;48463;43.604;3.872;2023-05-16T13:20:36;22.90;64.70
62424;DHT22;48463;43.604;3.872;2023-05-16T13:23:03;23.10;64.60
62424;DHT22;48463;43.604;3.872;2023-05-16T13:25:30;23.30;64.10
62424;DHT22;48463;43.604;3.872;2023-05-16T13:27:55;22.70;64.30
62424;DHT22;48463;43.604;3.872;2023-05-16T13:30:21;22.70;64.90
62424;DHT22;48463;43.604;3.872;2023-05-16T13:32:47;23.00;64.70
62424;DHT22;48463;43.604;3.872;2023-05-16T13:35:14;23.10;64.20
62424;DHT22;48463;43.604;3.872;2023-05-16T13:37:40;22.90;64.80
62424;DHT22;48463;43.604;3.872;2023-05-16T13:40:06;22.90;64.90
62424;DHT22;48463;43.604;3.872;2023-05-16T13:42:36;22.80;64.80
62424;DHT22;48463;43.604;3.872;2023-05-16T13:45:03;22.70;64.90
62424;DHT22;48463;43.604;3.872;2023-05-16T13:47:29;23.20;64.60
62424;DHT22;48463;43.604;3.872;2023-05-16T13:49:55;22.80;64.90
62424;DHT22;48463;43.604;3.872;2023-05-16T13:52:21;23.10;65.70
62424;DHT22;48463;43.604;3.872;2023-05-16T13:54:46;23.30;64.80
62424;DHT22;48463;43.604;3.872;2023-05-16T13:57:12;22.50;65.10
62424;DHT22;48463;43.604;3.872;2023-05-16T13:59:38;22.70;65.60
62424;DHT22;48463;43.604;3.872;2023-05-16T14:02:04;22.60;64.60
62424;DHT22;48463;43.604;3.872;2023-05-16T14:04:30;23.00;65.20
62424;DHT22;48463;43.604;3.872;2023-05-16T14:06:56;23.10;64.50
62424;DHT22;48463;43.604;3.872;2023-05-16T14:09:22;23.00;64.60
62424;DHT22;48463;43.604;3.872;2023-05-16T14:11:51;23.00;64.80
62424;DHT22;48463;43.604;3.872;2023-05-16T14:14:17;23.30;65.00
62424;DHT22;48463;43.604;3.872;2023-05-16T14:16:43;23.30;64.90
62424;DHT22;48463;43.604;3.872;2023-05-16T14:19:11;23.70;64.40
62424;DHT22;48463;43.604;3.872;2023-05-16T14:21:37;23.50;64.80
62424;DHT22;48463;43.604;3.872;2023-05-16T14:24:03;23.30;64.20
62424;DHT22;48463;43.604;3.872;2023-05-16T14:26:29;23.70;64.10
62424;DHT22;48463;43.604;3.872;2023-05-16T14:28:56;23.70;63.50
62424;DHT22;48463;43.604;3.872;2023-05-16T14:31:22;23.80;64.00
62424;DHT22;48463;43.604;3.872;2023-05-16T14:33:48;23.60;64.00
62424;DHT22;48463;43.604;3.872;2023-05-16T14:36:13;23.50;64.00
62424;DHT22;48463;43.604;3.872;2023-05-16T14:38:39;24.10;63.70
62424;DHT22;48463;43.604;3.872;2023-05-16T14:41:05;23.60;64.10
62424;DHT22;48463;43.604;3.872;2023-05-16T14:43:30;23.50;64.20
62424;DHT22;48463;43.604;3.872;2023-05-16T14:45:56;23.90;64.00
62424;DHT22;48463;43.604;3.872;2023-05-16T14:48:22;23.40;63.70
62424;DHT22;48463;43.604;3.872;2023-05-16T14:50:48;24.70;63.60
62424;DHT22;48463;43.604;3.872;2023-05-16T14:53:14;28.10;61.80
62424;DHT22;48463;43.604;3.872;2023-05-16T14:55:39;29.70;60.00
62424;DHT22;48463;43.604;3.872;2023-05-16T14:58:05;29.10;58.00
62424;DHT22;48463;43.604;3.872;2023-05-16T15:00:31;28.10;59.20
62424;DHT22;48463;43.604;3.872;2023-05-16T15:02:58;28.90;59.10
62424;DHT22;48463;43.604;3.872;2023-05-16T15:05:24;27.50;59.40
62424;DHT22;48463;43.604;3.872;2023-05-16T15:07:50;29.60;58.30
62424;DHT22;48463;43.604;3.872;2023-05-16T15:10:16;29.90;57.30
62424;DHT22;48463;43.604;3.872;2023-05-16T15:12:42;26.70;57.30
62424;DHT22;48463;43.604;3.872;2023-05-16T15:15:08;24.80;59.70
62424;DHT22;48463;43.604;3.872;2023-05-16T15:17:36;23.70;61.40
62424;DHT22;48463;43.604;3.872;2023-05-16T15:20:06;23.80;61.70
62424;DHT22;48463;43.604;3.872;2023-05-16T15:22:34;23.60;62.10
62424;DHT22;48463;43.604;3.872;2023-05-16T15:25:01;23.70;61.30
62424;DHT22;48463;43.604;3.872;2023-05-16T15:27:27;23.70;61.80
62424;DHT22;48463;43.604;3.872;2023-05-16T15:29:52;23.60;61.70
62424;DHT22;48463;43.604;3.872;2023-05-16T15:32:18;23.20;61.40
62424;DHT22;48463;43.604;3.872;2023-05-16T15:34:44;23.40;61.20
62424;DHT22;48463;43.604;3.872;2023-05-16T15:37:10;23.80;61.00
62424;DHT22;48463;43.604;3.872;2023-05-16T15:39:36;23.80;61.50
62424;DHT22;48463;43.604;3.872;2023-05-16T15:42:01;23.80;61.30
62424;DHT22;48463;43.604;3.872;2023-05-16T15:44:31;23.20;61.90
62424;DHT22;48463;43.604;3.872;2023-05-16T15:46:56;23.60;62.00
62424;DHT22;48463;43.604;3.872;2023-05-16T15:49:22;23.20;62.10
62424;DHT22;48463;43.604;3.872;2023-05-16T15:51:49;23.80;61.20
62424;DHT22;48463;43.604;3.872;2023-05-16T15:54:15;23.30;61.80
62424;DHT22;48463;43.604;3.872;2023-05-16T15:56:41;23.80;61.60
62424;DHT22;48463;43.604;3.872;2023-05-16T15:59:07;23.20;61.70
62424;DHT22;48463;43.604;3.872;2023-05-16T16:01:32;23.50;61.80
62424;DHT22;48463;43.604;3.872;2023-05-16T16:03:58;24.30;61.30